Time;durP1;ratioP1;P1;durP2;ratioP2;P2;SDS_P1;SDS_P2;PMS_P1;PMS_P2;Temp;Humidity;BMP_temperature;BMP_pressure;BME280_temperature;BME280_humidity;BME280_pressure;Samples;Min_cycle;Max_cycle;Signal;HPM_P1;HPM_P2
2023/05/04 00:02:05;;;;;;;20.90;14.70;;;;;;;12.20;50.98;101177.59;4915603;28;97544;-86
2023/05/04 00:04:31;;;;;;;20.98;14.15;;;;;;;12.13;51.47;101160.22;4937258;28;96861;-82
2023/05/04 00:06:56;;;;;;;24.42;14.70;;;;;;;12.26;51.10;101179.22;4909771;28;96971;-82
2023/05/04 00:09:22;;;;;;;21.60;16.15;;;;;;;12.24;51.16;101189.75;4924042;28;97986;-81
2023/05/04 00:11:47;;;;;;;24.27;15.45;;;;;;;12.23;51.46;101186.28;4915815;28;101578;-81
2023/05/04 00:14:13;;;;;;;22.63;16.27;;;;;;;12.21;51.28;101181.94;4916241;28;97001;-82
2023/05/04 00:16:38;;;;;;;22.35;17.02;;;;;;;12.15;51.52;101177.72;4931859;28;97270;-82
2023/05/04 00:19:04;;;;;;;22.77;16.30;;;;;;;12.11;51.20;101175.22;4915969;28;101103;-84
2023/05/04 00:21:29;;;;;;;21.65;15.93;;;;;;;12.06;51.50;101177.97;4940771;28;97959;-82
2023/05/04 00:23:55;;;;;;;25.02;15.57;;;;;;;12.03;51.78;101178.06;4931319;28;96841;-82
2023/05/04 00:26:20;;;;;;;19.17;15.63;;;;;;;11.91;51.76;101154.69;4933898;28;97642;-82
2023/05/04 00:28:46;;;;;;;23.33;16.10;;;;;;;11.83;51.48;101141.69;4908550;28;101872;-82
2023/05/04 00:31:12;;;;;;;21.30;18.17;;;;;;;11.95;52.10;101167.72;4931968;28;101299;-82
2023/05/04 00:33:37;;;;;;;27.25;19.40;;;;;;;11.85;52.25;101174.13;4951919;28;96920;-82
2023/05/04 00:36:03;;;;;;;24.63;19.42;;;;;;;11.72;52.48;101164.78;4915578;28;97230;-81
2023/05/04 00:38:29;;;;;;;24.90;18.92;;;;;;;11.70;52.34;101161.34;4898782;28;101218;-82
2023/05/04 00:40:57;;;;;;;32.75;19.13;;;;;;;11.52;52.42;101147.75;4913001;28;97167;-81
2023/05/04 00:43:24;;;;;;;23.73;17.55;;;;;;;11.62;52.71;101166.78;4907556;28;96907;-81
2023/05/04 00:45:50;;;;;;;27.95;18.00;;;;;;;11.63;52.56;101171.13;4930709;28;96906;-84
2023/05/04 00:48:15;;;;;;;24.35;18.30;;;;;;;11.67;52.31;101170.19;4915334;28;101447;-82
2023/05/04 00:50:41;;;;;;;26.67;17.55;;;;;;;11.55;52.33;101168.72;4938965;28;101332;-83
2023/05/04 00:53:08;;;;;;;21.77;16.58;;;;;;;11.60;52.54;101165.09;4943317;28;96708;-82
2023/05/04 00:55:39;;;;;;;22.88;17.77;;;;;;;11.64;52.74;101175.50;4915755;28;97430;-84
2023/05/04 00:58:06;;;;;;;22.57;17.70;;;;;;;11.68;52.24;101184.19;4934693;28;101558;-84
2023/05/04 01:00:32;;;;;;;25.80;17.73;;;;;;;11.62;52.56;101177.31;4934487;28;100079;-82
2023/05/04 01:02:57;;;;;;;21.85;17.23;;;;;;;11.59;52.33;101171.28;4930257;28;97103;-82
2023/05/04 01:05:25;;;;;;;25.50;18.65;;;;;;;11.57;52.48;101176.56;4915129;28;97172;-82
2023/05/04 01:08:01;;;;;;;23.65;18.15;;;;;;;11.49;52.79;101179.38;4904669;28;102062;-82
2023/05/04 01:10:34;;;;;;;19.60;17.40;;;;;;;11.44;53.08;101178.63;4927218;28;101405;-82
2023/05/04 01:13:01;;;;;;;22.88;17.27;;;;;;;11.47;52.78;101185.59;4908275;28;97059;-82
2023/05/04 01:15:28;;;;;;;19.73;17.45;;;;;;;11.49;52.92;101184.66;4963785;28;96807;-82
2023/05/04 01:17:54;;;;;;;19.65;17.00;;;;;;;11.46;52.74;101186.47;4915564;28;101589;-82
2023/05/04 01:20:20;;;;;;;20.30;17.30;;;;;;;11.37;53.08;101170.91;4919783;28;101352;-84
2023/05/04 01:22:45;;;;;;;19.38;17.38;;;;;;;11.44;53.08;101191.78;4919069;28;97945;-83
2023/05/04 01:25:11;;;;;;;26.65;18.52;;;;;;;11.33;52.93;101172.75;4910270;28;97711;-85
2023/05/04 01:28:07;;;;;;;22.42;18.65;;;;;;;11.39;53.02;101195.41;4900950;28;101723;-82
2023/05/04 01:30:42;;;;;;;19.83;17.73;;;;;;;11.18;53.13;101173.13;4906064;28;101079;-82
2023/05/04 01:33:08;;;;;;;23.33;19.17;;;;;;;11.23;52.61;101182.63;4918531;28;96830;-83
2023/05/04 01:35:36;;;;;;;23.35;18.70;;;;;;;11.10;52.64;101161.00;4927354;28;97261;-82
2023/05/04 01:38:02;;;;;;;21.60;18.48;;;;;;;11.12;52.62;101174.13;4902407;28;100447;-82
2023/05/04 01:40:28;;;;;;;21.27;19.08;;;;;;;11.13;52.51;101183.72;4925319;28;98167;-83
2023/05/04 01:42:55;;;;;;;23.65;19.45;;;;;;;11.15;52.87;101183.72;4935102;28;97311;-81
2023/05/04 01:45:21;;;;;;;24.45;19.88;;;;;;;11.12;52.44;101173.25;4918107;28;97167;-82
2023/05/04 01:47:47;;;;;;;23.92;19.58;;;;;;;11.09;52.30;101176.81;4925807;28;101516;-82
2023/05/04 01:50:12;;;;;;;27.63;19.30;;;;;;;11.06;53.09;101187.41;4905116;28;101776;-83
2023/05/04 01:52:38;;;;;;;23.13;18.92;;;;;;;11.14;52.53;101188.09;4917522;28;97127;-82
2023/05/04 01:55:04;;;;;;;22.50;18.23;;;;;;;11.04;52.49;101181.31;4932926;28;97260;-84
2023/05/04 01:57:31;;;;;;;22.98;18.70;;;;;;;10.97;52.59;101185.84;4910202;28;101818;-82
2023/05/04 01:59:57;;;;;;;22.50;18.55;;;;;;;11.03;52.99;101182.22;4907852;28;101442;-82
2023/05/04 02:02:23;;;;;;;27.40;20.10;;;;;;;10.97;53.13;101183.22;4897521;28;97172;-82
2023/05/04 02:04:49;;;;;;;23.80;18.45;;;;;;;10.90;53.27;101189.47;4916571;28;97280;-82
2023/05/04 02:07:15;;;;;;;28.10;18.85;;;;;;;10.85;53.07;101183.50;4912389;28;99661;-82
2023/05/04 02:09:41;;;;;;;22.00;18.95;;;;;;;10.80;53.03;101178.31;4914621;28;101452;-83
2023/05/04 02:12:07;;;;;;;24.05;19.35;;;;;;;10.74;52.87;101167.09;4924498;28;96922;-82
2023/05/04 02:14:32;;;;;;;23.13;18.38;;;;;;;10.79;53.03;101191.47;4910474;28;97360;-82
2023/05/04 02:16:58;;;;;;;23.13;18.40;;;;;;;10.74;53.23;101186.34;4906632;28;101490;-82
2023/05/04 02:19:24;;;;;;;25.65;20.13;;;;;;;10.73;53.55;101186.34;4924374;28;101229;-82
2023/05/04 02:21:51;;;;;;;24.15;18.60;;;;;;;10.77;53.36;101181.00;4907811;28;97340;-82
2023/05/04 02:24:16;;;;;;;24.60;20.80;;;;;;;10.75;53.10;101176.69;4914119;28;96946;-82
2023/05/04 02:26:42;;;;;;;25.08;19.42;;;;;;;10.72;53.20;101184.63;4919014;28;97992;-82
2023/05/04 02:29:07;;;;;;;27.55;19.35;;;;;;;10.70;53.04;101179.41;4913928;28;101250;-81
2023/05/04 02:31:33;;;;;;;24.77;19.35;;;;;;;10.75;53.29;101179.31;4921154;28;98127;-82
2023/05/04 02:34:00;;;;;;;25.75;19.42;;;;;;;10.64;52.83;101155.91;4946060;28;97010;-82
2023/05/04 02:40:07;;;;;;;23.67;18.85;;;;;;;10.52;53.32;101169.28;4939189;28;96917;-82
2023/05/04 02:42:33;;;;;;;28.60;20.38;;;;;;;10.43;53.77;101160.69;4912331;28;97212;-81
2023/05/04 02:44:59;;;;;;;28.38;19.73;;;;;;;10.52;53.65;101170.16;4923840;28;97282;-81
2023/05/04 02:47:24;;;;;;;28.50;19.83;;;;;;;10.54;53.63;101167.50;4925937;28;98462;-82
2023/05/04 02:49:50;;;;;;;23.05;20.08;;;;;;;10.54;53.48;101173.63;4904023;28;101732;-81
2023/05/04 02:52:16;;;;;;;28.83;20.45;;;;;;;10.39;53.93;101161.66;4895720;28;97170;-82
2023/05/04 02:54:41;;;;;;;28.58;20.70;;;;;;;10.23;53.70;101127.84;4913887;28;97125;-83
2023/05/04 02:57:07;;;;;;;26.92;20.00;;;;;;;10.45;53.78;101171.19;4938484;28;98529;-82
2023/05/04 02:59:32;;;;;;;25.50;20.02;;;;;;;10.42;54.01;101173.88;4932973;28;98001;-82
2023/05/04 03:01:58;;;;;;;24.45;20.67;;;;;;;10.14;53.80;101121.00;4925136;28;97680;-82
2023/05/04 03:04:23;;;;;;;24.73;19.80;;;;;;;10.48;53.82;101172.88;4913556;28;96808;-82
2023/05/04 03:06:50;;;;;;;24.38;20.02;;;;;;;10.41;53.57;101172.13;4904454;28;101178;-82
2023/05/04 03:09:15;;;;;;;23.92;19.10;;;;;;;10.46;53.82;101175.53;4906322;28;101301;-82
2023/05/04 03:11:42;;;;;;;30.23;20.85;;;;;;;10.32;53.99;101149.53;4922166;28;97341;-83
2023/05/04 03:14:08;;;;;;;22.88;19.48;;;;;;;10.36;54.29;101174.84;4918026;28;97134;-81
2023/05/04 03:16:33;;;;;;;26.88;20.38;;;;;;;10.26;53.99;101162.75;4907636;28;101309;-82
2023/05/04 03:19:00;;;;;;;28.85;20.60;;;;;;;10.38;53.67;101182.69;4905991;28;101616;-81
2023/05/04 03:21:26;;;;;;;27.45;21.23;;;;;;;10.30;54.13;101171.50;4902972;28;97995;-81
2023/05/04 03:23:52;;;;;;;25.52;18.98;;;;;;;10.22;54.26;101161.09;4894877;28;97133;-81
2023/05/04 03:26:17;;;;;;;24.98;19.42;;;;;;;10.30;54.15;101172.34;4914881;28;101672;-82
2023/05/04 03:28:43;;;;;;;26.42;18.17;;;;;;;10.23;54.29;101160.19;4928632;28;100981;-82
2023/05/04 03:31:08;;;;;;;25.77;20.08;;;;;;;10.31;54.05;101181.06;4915732;28;97336;-82
2023/05/04 03:33:34;;;;;;;32.00;19.92;;;;;;;10.09;53.92;101159.59;4916879;28;97499;-82
2023/05/04 03:35:59;;;;;;;26.02;19.60;;;;;;;10.25;54.17;101181.16;4927944;28;101469;-82
2023/05/04 03:38:25;;;;;;;22.70;18.52;;;;;;;10.08;54.20;101174.47;4923714;28;101377;-82
2023/05/04 03:40:51;;;;;;;23.10;18.55;;;;;;;10.11;54.44;101190.16;4903627;28;96708;-82
2023/05/04 03:43:16;;;;;;;24.92;20.13;;;;;;;10.16;54.63;101188.31;4914767;28;97035;-81
2023/05/04 03:45:42;;;;;;;23.35;19.42;;;;;;;10.08;54.37;101178.84;4907538;28;101768;-82
2023/05/04 03:48:08;;;;;;;23.58;18.73;;;;;;;10.18;54.50;101189.16;4904249;28;101557;-81
2023/05/04 03:50:33;;;;;;;27.92;19.17;;;;;;;10.24;54.11;101187.28;4925752;28;96797;-85
2023/05/04 03:52:59;;;;;;;27.70;20.33;;;;;;;10.15;54.54;101186.59;4923559;28;97263;-81
2023/05/04 03:55:26;;;;;;;29.48;19.15;;;;;;;9.92;54.34;101146.81;4904285;28;102061;-82
2023/05/04 03:57:52;;;;;;;27.35;20.23;;;;;;;10.15;54.70;101190.94;4928444;28;101132;-81
2023/05/04 04:00:18;;;;;;;34.70;21.27;;;;;;;10.10;54.56;101179.69;4898954;28;97269;-81
2023/05/04 04:02:52;;;;;;;25.25;20.15;;;;;;;10.24;54.22;101184.66;4908859;28;97198;-82
2023/05/04 04:05:18;;;;;;;25.65;20.50;;;;;;;10.27;53.90;101192.50;4921426;28;101760;-81
2023/05/04 04:07:45;;;;;;;29.00;21.45;;;;;;;10.24;54.25;101180.31;4907493;28;101868;-81
2023/05/04 04:10:10;;;;;;;26.98;21.80;;;;;;;10.25;54.25;101194.28;4925304;28;97301;-81
2023/05/04 04:12:36;;;;;;;35.13;23.10;;;;;;;10.26;54.87;101199.50;4927131;28;97266;-82
2023/05/04 04:15:02;;;;;;;27.15;21.55;;;;;;;10.20;54.83;101189.13;4907011;28;101549;-81
2023/05/04 04:17:27;;;;;;;31.48;22.05;;;;;;;10.24;54.93;101198.69;4936752;28;97403;-82
2023/05/04 04:19:53;;;;;;;26.95;21.33;;;;;;;10.29;54.50;101188.09;4899241;28;96749;-82
2023/05/04 04:22:18;;;;;;;32.88;22.65;;;;;;;10.42;55.16;101195.72;4905358;28;97179;-81
2023/05/04 04:24:44;;;;;;;32.53;22.92;;;;;;;10.43;54.73;101183.47;4900175;28;101462;-80
2023/05/04 04:27:09;;;;;;;28.85;21.70;;;;;;;10.59;54.44;101200.66;4923981;28;101104;-81
2023/05/04 04:29:35;;;;;;;30.58;22.67;;;;;;;10.67;54.67;101195.22;4904978;28;97089;-82
2023/05/04 04:32:02;;;;;;;28.08;21.77;;;;;;;10.78;54.17;101195.88;4935887;28;97443;-81
2023/05/04 04:34:27;;;;;;;30.33;22.17;;;;;;;10.74;54.30;101174.97;4904425;28;101491;-82
2023/05/04 04:36:53;;;;;;;28.35;22.83;;;;;;;10.92;53.79;101189.47;4913881;28;100667;-82
2023/05/04 04:39:18;;;;;;;26.00;22.05;;;;;;;11.04;53.56;101189.19;4935480;28;97207;-82
2023/05/04 04:41:44;;;;;;;28.38;22.00;;;;;;;11.08;53.79;101185.59;4934083;28;97360;-81
2023/05/04 04:44:10;;;;;;;30.85;22.92;;;;;;;11.23;53.83;101192.28;4918555;28;98126;-81
2023/05/04 04:46:36;;;;;;;26.02;22.02;;;;;;;11.19;53.77;101177.47;4914354;28;97947;-82
2023/05/04 04:49:02;;;;;;;30.58;23.15;;;;;;;11.42;53.44;101197.97;4904190;28;96817;-83
2023/05/04 04:51:28;;;;;;;30.00;21.70;;;;;;;11.50;53.42;101185.50;4916333;28;97235;-82
2023/05/04 04:53:53;;;;;;;28.33;21.75;;;;;;;11.69;53.90;101197.31;4918998;28;101875;-82
2023/05/04 04:56:19;;;;;;;29.10;21.77;;;;;;;11.84;53.55;101203.94;4923038;28;97948;-81
2023/05/04 04:58:46;;;;;;;30.92;22.10;;;;;;;11.98;53.28;101209.75;4930970;28;97111;-82
2023/05/04 05:01:16;;;;;;;29.88;23.02;;;;;;;12.09;53.00;101198.94;4900400;28;97079;-84
2023/05/04 05:03:43;;;;;;;26.75;23.45;;;;;;;12.18;52.78;101182.88;4919010;28;101563;-83
2023/05/04 05:06:10;;;;;;;29.70;22.92;;;;;;;12.44;52.83;101189.22;4911369;28;101337;-82
2023/05/04 05:08:36;;;;;;;30.73;23.00;;;;;;;12.62;52.50;101198.38;4898713;28;97203;-83
2023/05/04 05:11:02;;;;;;;31.98;23.67;;;;;;;12.77;52.24;101197.94;4915707;28;97080;-85
2023/05/04 05:13:27;;;;;;;36.33;23.85;;;;;;;12.85;51.81;101188.03;4907129;28;100311;-82
2023/05/04 05:15:53;;;;;;;34.10;23.10;;;;;;;13.01;51.60;101187.59;4912462;28;101572;-82
2023/05/04 05:18:18;;;;;;;35.35;22.98;;;;;;;13.11;51.06;101187.22;4910556;28;97211;-84
2023/05/04 05:20:44;;;;;;;25.67;22.20;;;;;;;13.32;50.96;101195.41;4914652;28;97256;-82
2023/05/04 05:23:09;;;;;;;23.25;18.15;;;;;;;13.40;49.04;101193.41;4931907;28;101199;-82
2023/05/04 05:25:36;;;;;;;24.52;19.83;;;;;;;13.55;48.19;101184.13;4920373;28;99675;-83
2023/05/04 05:28:02;;;;;;;27.77;20.05;;;;;;;13.52;48.16;101149.94;4904898;28;97860;-84
2023/05/04 05:30:27;;;;;;;24.58;19.10;;;;;;;13.87;47.69;101177.78;4903435;28;97202;-82
2023/05/04 05:32:53;;;;;;;23.25;18.45;;;;;;;14.04;46.68;101185.97;4931452;28;97985;-83
2023/05/04 05:35:18;;;;;;;20.23;17.98;;;;;;;14.08;45.33;101178.84;4911318;28;102065;-85
2023/05/04 05:37:44;;;;;;;20.85;18.15;;;;;;;14.21;44.16;101177.47;4918096;28;97219;-83
2023/05/04 05:40:10;;;;;;;20.05;17.95;;;;;;;14.39;43.29;101189.16;4911707;28;96864;-83
2023/05/04 05:42:35;;;;;;;18.95;16.92;;;;;;;14.47;42.64;101165.09;4912681;28;98246;-83
2023/05/04 05:45:03;;;;;;;22.63;17.15;;;;;;;14.61;42.28;101168.13;4915699;28;101527;-83
2023/05/04 05:47:29;;;;;;;18.02;16.23;;;;;;;14.92;42.00;101186.34;4912911;28;97527;-83
2023/05/04 05:49:55;;;;;;;19.20;15.80;;;;;;;15.12;41.39;101177.63;4924414;28;97079;-83
2023/05/04 05:52:20;;;;;;;18.05;15.77;;;;;;;15.44;41.24;101187.84;4918653;28;101160;-83
2023/05/04 05:54:46;;;;;;;16.60;15.00;;;;;;;15.57;39.82;101189.94;4898642;28;101501;-83
2023/05/04 05:57:11;;;;;;;16.27;14.43;;;;;;;15.76;39.37;101192.69;4908934;28;97145;-83
2023/05/04 05:59:37;;;;;;;15.32;13.77;;;;;;;16.05;38.37;101188.81;4898068;28;97248;-84
2023/05/04 06:02:02;;;;;;;15.55;14.15;;;;;;;16.25;38.24;101185.28;4944129;28;98200;-83
2023/05/04 06:04:28;;;;;;;15.15;13.77;;;;;;;16.40;37.90;101180.25;4916184;28;101215;-83
2023/05/04 06:06:54;;;;;;;16.08;14.55;;;;;;;16.59;36.94;101173.19;4946760;28;97564;-83
2023/05/04 06:09:19;;;;;;;15.10;13.88;;;;;;;16.75;36.22;101168.94;4951796;28;96833;-86
2023/05/04 06:11:45;;;;;;;15.63;14.02;;;;;;;16.96;35.58;101188.31;4940186;28;99062;-83
2023/05/04 06:14:11;;;;;;;14.15;12.65;;;;;;;17.22;35.59;101183.56;4917360;28;98351;-85
2023/05/04 06:16:37;;;;;;;14.55;13.25;;;;;;;17.63;34.43;101185.97;4928166;28;97463;-84
2023/05/04 06:19:02;;;;;;;15.43;13.93;;;;;;;17.71;34.13;101172.31;4917795;28;96922;-83
2023/05/04 06:21:28;;;;;;;16.42;14.77;;;;;;;18.02;33.60;101175.16;4930251;28;98081;-84
2023/05/04 06:23:53;;;;;;;16.30;14.52;;;;;;;18.23;33.32;101175.81;4933879;28;98198;-84
2023/05/04 06:26:20;;;;;;;20.30;13.85;;;;;;;18.47;33.61;101188.75;4924452;28;96881;-89
2023/05/04 06:28:47;;;;;;;14.82;13.35;;;;;;;18.80;33.00;101178.16;4909954;28;97106;-81
2023/05/04 06:31:13;;;;;;;15.27;13.90;;;;;;;19.08;32.86;101166.84;4920231;28;101520;-84
2023/05/04 06:33:39;;;;;;;14.70;13.20;;;;;;;19.43;32.31;101186.13;4934613;28;101473;-81
2023/05/04 06:36:05;;;;;;;15.40;13.85;;;;;;;19.66;32.13;101182.16;4908789;28;97910;-83
2023/05/04 06:38:30;;;;;;;18.38;14.43;;;;;;;19.81;31.60;101180.41;4933599;28;96913;-81
2023/05/04 06:40:56;;;;;;;15.65;14.25;;;;;;;20.22;31.26;101173.53;4928345;28;97601;-85
2023/05/04 06:43:21;;;;;;;15.27;13.70;;;;;;;20.67;31.25;101187.66;4955607;28;97829;-83
2023/05/04 06:45:47;;;;;;;14.52;13.20;;;;;;;20.73;29.81;101181.94;4941593;28;97003;-80
2023/05/04 06:48:12;;;;;;;15.57;12.88;;;;;;;20.86;29.75;101177.56;4927634;28;97038;-82
2023/05/04 06:50:38;;;;;;;14.68;13.25;;;;;;;21.31;29.38;101188.03;4943573;28;101789;-81
2023/05/04 06:53:08;;;;;;;14.88;13.57;;;;;;;21.59;29.28;101169.25;4922588;28;101286;-82
2023/05/04 06:55:37;;;;;;;15.30;13.85;;;;;;;22.02;28.61;101182.41;4936164;28;97065;-85
2023/05/04 06:58:03;;;;;;;16.13;14.68;;;;;;;22.14;28.53;101170.00;4946221;28;96915;-82
2023/05/04 07:00:29;;;;;;;17.05;15.30;;;;;;;22.36;27.86;101183.59;4935876;28;102091;-83
2023/05/04 07:02:55;;;;;;;16.00;14.77;;;;;;;22.65;27.59;101178.03;4936796;28;101484;-84
2023/05/04 07:05:21;;;;;;;15.90;14.52;;;;;;;23.07;26.96;101170.59;4929877;28;96843;-86
2023/05/04 07:07:48;;;;;;;15.68;14.45;;;;;;;23.46;26.48;101168.59;4942525;28;96997;-81
2023/05/04 07:10:14;;;;;;;18.13;16.73;;;;;;;23.71;25.71;101168.50;4931077;28;101327;-85
2023/05/04 07:12:40;;;;;;;17.20;15.80;;;;;;;24.00;25.88;101169.88;4941474;28;97868;-86
2023/05/04 07:15:07;;;;;;;15.85;14.65;;;;;;;24.43;25.27;101178.16;4914621;28;96806;-83
2023/05/04 07:17:33;;;;;;;16.55;14.35;;;;;;;24.71;24.42;101168.78;4956143;28;97038;-83
2023/05/04 07:20:03;;;;;;;15.40;13.98;;;;;;;24.91;24.50;101156.44;4922027;28;99168;-83
2023/05/04 07:22:32;;;;;;;16.13;14.80;;;;;;;25.21;24.70;101177.25;4914225;28;101864;-85
2023/05/04 07:24:59;;;;;;;16.60;15.20;;;;;;;25.78;24.34;101155.56;4916477;28;97472;-84
2023/05/04 07:27:24;;;;;;;16.17;14.88;;;;;;;26.09;23.90;101168.13;4932236;28;96947;-83
2023/05/04 07:29:50;;;;;;;15.38;14.07;;;;;;;26.41;23.90;101154.53;4949202;28;98469;-83
2023/05/04 07:32:19;;;;;;;15.35;14.15;;;;;;;26.76;23.40;101160.50;4933390;28;97877;-84
2023/05/04 07:34:44;;;;;;;15.63;14.48;;;;;;;26.94;23.68;101145.41;4927013;28;96944;-84
2023/05/04 07:37:11;;;;;;;16.58;15.07;;;;;;;26.58;23.00;101147.69;4923255;28;96929;-83
2023/05/04 07:39:39;;;;;;;15.82;14.73;;;;;;;26.40;23.21;101149.28;4928210;28;97988;-84
2023/05/04 07:42:06;;;;;;;15.05;13.65;;;;;;;26.51;23.34;101141.16;4916361;28;101383;-85
2023/05/04 07:44:32;;;;;;;15.57;14.07;;;;;;;27.44;23.38;101150.72;4915261;28;97102;-84
2023/05/04 07:46:58;;;;;;;14.15;13.23;;;;;;;27.55;21.75;101141.66;4929540;28;96974;-83
2023/05/04 07:49:24;;;;;;;14.52;13.27;;;;;;;27.53;21.83;101140.94;4941538;28;97626;-89
2023/05/04 07:51:50;;;;;;;14.52;13.63;;;;;;;27.98;21.27;101138.50;4935047;28;102174;-83
2023/05/04 07:54:15;;;;;;;15.13;14.02;;;;;;;27.89;20.98;101135.81;4939901;28;97742;-86
2023/05/04 07:56:41;;;;;;;15.55;14.23;;;;;;;27.91;21.27;101139.22;4924283;28;97309;-85
2023/05/04 07:59:06;;;;;;;13.65;12.65;;;;;;;28.17;20.64;101121.38;4937962;28;98287;-85
2023/05/04 08:01:32;;;;;;;14.05;12.95;;;;;;;28.50;20.33;101134.50;4929642;28;97960;-84
2023/05/04 08:03:57;;;;;;;15.07;14.07;;;;;;;28.95;20.38;101129.16;4920354;28;97093;-84
2023/05/04 08:06:23;;;;;;;13.52;12.55;;;;;;;29.09;19.95;101136.75;4943887;28;97194;-89
2023/05/04 08:08:48;;;;;;;14.55;13.27;;;;;;;28.48;19.85;101123.88;4915249;28;100437;-86
2023/05/04 08:11:15;;;;;;;14.63;13.38;;;;;;;27.93;20.16;101130.00;4926168;28;101264;-84
2023/05/04 08:13:40;;;;;;;13.48;12.48;;;;;;;28.13;20.33;101125.38;4923594;28;96859;-84
2023/05/04 08:16:08;;;;;;;14.75;13.75;;;;;;;29.05;20.21;101126.41;4920930;28;97195;-84
2023/05/04 08:18:33;;;;;;;15.32;14.18;;;;;;;29.62;20.14;101123.38;4941395;28;97646;-85
2023/05/04 08:20:59;;;;;;;14.43;13.43;;;;;;;28.74;19.75;101131.25;4925469;28;97963;-85
2023/05/04 08:23:24;;;;;;;15.57;14.38;;;;;;;29.00;19.66;101134.94;4918015;28;96846;-89
2023/05/04 08:25:51;;;;;;;14.43;13.48;;;;;;;29.28;19.24;101127.63;4921623;28;96985;-84
2023/05/04 08:28:17;;;;;;;13.57;12.68;;;;;;;29.29;19.37;101125.78;4901414;28;100727;-85
2023/05/04 08:30:43;;;;;;;14.25;13.25;;;;;;;29.78;19.18;101110.84;4947444;28;97940;-85
2023/05/04 08:33:08;;;;;;;13.45;12.48;;;;;;;29.42;18.96;101126.25;4935308;28;96840;-85
2023/05/04 08:35:34;;;;;;;12.50;11.70;;;;;;;29.40;18.57;101109.31;4912764;28;97469;-87
2023/05/04 08:38:00;;;;;;;12.82;11.90;;;;;;;29.83;18.70;101123.06;4921499;28;101314;-84
2023/05/04 08:40:26;;;;;;;12.40;11.35;;;;;;;29.00;19.00;101126.84;4934500;28;100742;-87
2023/05/04 08:42:52;;;;;;;13.48;12.55;;;;;;;29.87;18.65;101105.50;4912539;28;96792;-85
2023/05/04 08:45:17;;;;;;;13.30;12.27;;;;;;;30.71;18.88;101104.75;4902695;28;97642;-84
2023/05/04 08:47:43;;;;;;;14.45;13.05;;;;;;;31.13;18.56;101115.56;4930724;28;101793;-84
2023/05/04 08:50:10;;;;;;;14.23;13.32;;;;;;;31.21;18.11;101106.56;4920077;28;101371;-84
2023/05/04 08:52:40;;;;;;;14.13;13.00;;;;;;;31.25;17.78;101098.97;4927395;28;97115;-86
2023/05/04 08:55:06;;;;;;;14.60;13.48;;;;;;;31.00;17.89;101103.50;4929454;28;97115;-85
2023/05/04 08:57:32;;;;;;;13.18;12.18;;;;;;;30.52;17.73;101081.50;4936639;28;98642;-84
2023/05/04 08:59:58;;;;;;;12.88;12.00;;;;;;;30.12;18.43;101099.22;4927056;28;101224;-84
2023/05/04 09:02:25;;;;;;;12.80;11.90;;;;;;;29.77;18.59;101100.19;4934011;28;97154;-82
2023/05/04 09:04:51;;;;;;;13.52;12.43;;;;;;;30.61;17.97;101079.66;4935449;28;97023;-82
2023/05/04 09:07:21;;;;;;;13.90;13.00;;;;;;;30.84;18.13;101093.47;4903145;28;101702;-83
2023/05/04 09:09:49;;;;;;;13.43;12.53;;;;;;;30.67;18.28;101079.00;4902370;28;101190;-83
2023/05/04 09:12:15;;;;;;;13.05;12.25;;;;;;;30.88;18.17;101095.69;4896387;28;97384;-83
2023/05/04 09:14:41;;;;;;;14.82;13.73;;;;;;;29.80;18.87;101088.19;4894724;28;97169;-83
2023/05/04 09:17:16;;;;;;;13.10;12.20;;;;;;;29.33;18.59;101094.75;4915395;28;97666;-83
2023/05/04 09:19:43;;;;;;;13.65;12.65;;;;;;;29.43;18.74;101095.50;4885964;28;101389;-83
2023/05/04 09:22:18;;;;;;;14.23;13.13;;;;;;;30.41;18.46;101079.94;4898533;28;97282;-84
2023/05/04 09:24:45;;;;;;;14.45;13.45;;;;;;;30.30;18.45;101085.63;4886007;28;98011;-84
2023/05/04 09:27:12;;;;;;;14.02;13.10;;;;;;;29.80;18.71;101094.47;4884917;28;101265;-83
2023/05/04 09:29:39;;;;;;;14.25;13.35;;;;;;;30.26;18.98;101100.50;4893778;28;101252;-82
2023/05/04 09:32:06;;;;;;;13.68;12.57;;;;;;;30.17;18.43;101090.63;4868505;28;97972;-84
2023/05/04 09:34:32;;;;;;;14.02;12.88;;;;;;;30.29;19.13;101088.50;4882087;28;97532;-79
2023/05/04 09:37:02;;;;;;;13.68;12.68;;;;;;;30.12;20.23;101085.69;4914653;28;97428;-86
2023/05/04 09:39:28;;;;;;;15.30;14.30;;;;;;;30.08;21.79;101086.16;4915593;28;98108;-86
2023/05/04 09:41:54;;;;;;;15.25;14.02;;;;;;;29.96;19.54;101072.94;4900336;28;97170;-88
2023/05/04 09:44:21;;;;;;;14.98;13.77;;;;;;;29.74;19.68;101073.47;4918990;28;97131;-89
2023/05/04 09:46:57;;;;;;;14.18;12.80;;;;;;;28.92;19.24;101053.78;4929877;28;98211;-86
2023/05/04 09:49:33;;;;;;;14.73;13.27;;;;;;;26.31;21.42;101070.22;4908590;28;97586;-86
2023/05/04 09:52:02;;;;;;;13.30;12.30;;;;;;;26.49;21.68;101066.88;4878949;28;97086;-85
2023/05/04 09:54:33;;;;;;;13.93;12.88;;;;;;;26.08;21.45;101056.09;4911985;28;97244;-86
2023/05/04 09:57:14;;;;;;;12.73;11.90;;;;;;;26.23;22.53;101067.34;4897574;28;101170;-85
2023/05/04 09:59:39;;;;;;;;;;;;;;;25.90;22.56;101071.16;4892189;28;98395;-86
2023/05/04 10:02:05;;;;;;;13.43;12.52;;;;;;;26.10;22.34;101053.28;4912324;28;97339;-87
2023/05/04 10:04:37;;;;;;;12.48;11.63;;;;;;;25.77;22.61;101047.13;4895611;28;97202;-86
2023/05/04 10:07:03;;;;;;;13.57;12.63;;;;;;;25.89;22.36;101067.63;4896851;28;99568;-86
2023/05/04 10:09:30;;;;;;;14.38;13.25;;;;;;;25.50;23.23;101067.34;4907426;28;101708;-85
2023/05/04 10:12:00;;;;;;;14.10;13.10;;;;;;;24.34;23.52;101076.91;4903961;28;96884;-85
2023/05/04 10:14:30;;;;;;;13.40;12.40;;;;;;;24.66;24.00;101066.28;4895757;28;97149;-86
2023/05/04 10:17:07;;;;;;;12.95;11.88;;;;;;;24.73;23.78;101061.28;4904894;28;96982;-85
2023/05/04 10:19:45;;;;;;;12.70;11.77;;;;;;;24.37;23.72;101039.94;4924238;28;100318;-86
2023/05/04 10:22:16;;;;;;;12.30;11.32;;;;;;;24.22;24.19;101059.13;4921999;28;98160;-86
2023/05/04 10:25:02;;;;;;;12.48;11.63;;;;;;;23.93;24.32;101057.75;4904093;28;97725;-86
2023/05/04 10:27:56;;;;;;;12.88;11.90;;;;;;;23.61;24.53;101060.25;4927819;28;97226;-86
2023/05/04 10:30:22;;;;;;;12.48;11.60;;;;;;;23.49;24.94;101051.31;4934311;28;99868;-86
2023/05/04 10:32:57;;;;;;;12.63;11.73;;;;;;;23.29;25.41;101033.25;4900573;28;96855;-87
2023/05/04 10:35:23;;;;;;;13.15;12.13;;;;;;;23.34;26.46;101040.94;4911994;28;96954;-86
2023/05/04 10:37:53;;;;;;;13.48;12.57;;;;;;;23.47;26.87;101026.50;4893523;28;101370;-86
2023/05/04 10:40:31;;;;;;;12.68;11.77;;;;;;;23.48;27.00;101030.03;4926686;28;97938;-85
2023/05/04 10:42:57;;;;;;;13.43;12.32;;;;;;;23.04;26.00;101032.44;4945773;28;96686;-80
2023/05/04 10:45:34;;;;;;;13.98;12.00;;;;;;;22.80;26.02;101024.38;4915956;28;97020;-81
2023/05/04 10:47:59;;;;;;;12.20;11.40;;;;;;;22.65;26.41;101032.69;4913095;28;101439;-81
2023/05/04 10:50:25;;;;;;;13.13;12.18;;;;;;;22.17;26.74;101032.59;4915206;28;97385;-82
2023/05/04 10:52:52;;;;;;;11.93;11.13;;;;;;;22.41;27.25;101022.81;4905681;28;97129;-82
2023/05/04 10:55:19;;;;;;;12.55;11.35;;;;;;;22.38;27.30;100993.63;4915404;28;96853;-81
2023/05/04 10:57:56;;;;;;;12.60;11.45;;;;;;;22.45;27.56;101020.75;4925459;28;101765;-85
2023/05/04 11:00:23;;;;;;;12.00;11.10;;;;;;;22.53;28.05;101013.88;4923713;28;101593;-82
2023/05/04 11:02:48;;;;;;;11.68;10.80;;;;;;;22.41;27.41;101004.09;4890086;28;96824;-82
2023/05/04 11:05:19;;;;;;;12.82;11.90;;;;;;;22.37;27.69;100992.78;4923155;28;97198;-84
2023/05/04 11:07:45;;;;;;;11.80;10.80;;;;;;;22.27;27.91;100990.88;4892245;28;101789;-81
2023/05/04 11:10:24;;;;;;;11.93;10.93;;;;;;;22.04;26.71;100996.00;4932024;28;101672;-83